sensor_id;sensor_type;location;lat;lon;timestamp;P1;durP1;ratioP1;P2;durP2;ratioP2
4274;SDS011;2151;50.988;11.068;2022-11-15T00:01:56;123.17;;;5.47;;
4274;SDS011;2151;50.988;11.068;2022-11-15T00:04:22;123.17;;;5.37;;
4274;SDS011;2151;50.988;11.068;2022-11-15T00:06:48;131.97;;;6.83;;
4274;SDS011;2151;50.988;11.068;2022-11-15T00:09:15;122.73;;;5.87;;
4274;SDS011;2151;50.988;11.068;2022-11-15T00:11:41;124.30;;;5.80;;
4274;SDS011;2151;50.988;11.068;2022-11-15T00:14:07;123.30;;;5.43;;
4274;SDS011;2151;50.988;11.068;2022-11-15T00:16:34;123.17;;;5.83;;
4274;SDS011;2151;50.988;11.068;2022-11-15T00:19:00;123.57;;;5.37;;
4274;SDS011;2151;50.988;11.068;2022-11-15T00:21:27;123.47;;;5.67;;
4274;SDS011;2151;50.988;11.068;2022-11-15T00:23:53;123.27;;;5.40;;
4274;SDS011;2151;50.988;11.068;2022-11-15T00:26:19;123.40;;;5.70;;
4274;SDS011;2151;50.988;11.068;2022-11-15T00:28:46;122.40;;;5.60;;
4274;SDS011;2151;50.988;11.068;2022-11-15T00:31:13;123.17;;;5.43;;
4274;SDS011;2151;50.988;11.068;2022-11-15T00:33:40;123.07;;;5.57;;
4274;SDS011;2151;50.988;11.068;2022-11-15T00:36:08;124.20;;;5.80;;
4274;SDS011;2151;50.988;11.068;2022-11-15T00:38:37;122.80;;;6.07;;
4274;SDS011;2151;50.988;11.068;2022-11-15T00:41:04;123.37;;;5.73;;
4274;SDS011;2151;50.988;11.068;2022-11-15T00:43:35;122.90;;;5.63;;
4274;SDS011;2151;50.988;11.068;2022-11-15T00:46:01;123.07;;;5.57;;
4274;SDS011;2151;50.988;11.068;2022-11-15T00:48:28;124.77;;;5.83;;
4274;SDS011;2151;50.988;11.068;2022-11-15T00:50:55;123.80;;;5.57;;
4274;SDS011;2151;50.988;11.068;2022-11-15T00:53:21;123.30;;;5.83;;
4274;SDS011;2151;50.988;11.068;2022-11-15T00:55:48;124.00;;;5.80;;
4274;SDS011;2151;50.988;11.068;2022-11-15T00:58:14;124.17;;;6.20;;
4274;SDS011;2151;50.988;11.068;2022-11-15T01:00:40;123.47;;;5.87;;
4274;SDS011;2151;50.988;11.068;2022-11-15T01:03:07;124.37;;;5.67;;
4274;SDS011;2151;50.988;11.068;2022-11-15T01:05:33;123.10;;;5.53;;
4274;SDS011;2151;50.988;11.068;2022-11-15T01:07:59;123.57;;;5.77;;
4274;SDS011;2151;50.988;11.068;2022-11-15T01:10:26;123.67;;;6.10;;
4274;SDS011;2151;50.988;11.068;2022-11-15T01:12:52;123.93;;;6.03;;
4274;SDS011;2151;50.988;11.068;2022-11-15T01:15:19;123.67;;;6.00;;
4274;SDS011;2151;50.988;11.068;2022-11-15T01:17:45;121.87;;;5.93;;
4274;SDS011;2151;50.988;11.068;2022-11-15T01:20:11;123.90;;;5.53;;
4274;SDS011;2151;50.988;11.068;2022-11-15T01:22:38;123.67;;;5.63;;
4274;SDS011;2151;50.988;11.068;2022-11-15T01:25:04;123.90;;;5.70;;
4274;SDS011;2151;50.988;11.068;2022-11-15T01:27:31;123.40;;;5.77;;
4274;SDS011;2151;50.988;11.068;2022-11-15T01:29:57;123.87;;;5.87;;
4274;SDS011;2151;50.988;11.068;2022-11-15T01:32:24;123.77;;;5.67;;
4274;SDS011;2151;50.988;11.068;2022-11-15T01:34:50;122.90;;;5.47;;
4274;SDS011;2151;50.988;11.068;2022-11-15T01:37:16;123.37;;;5.70;;
4274;SDS011;2151;50.988;11.068;2022-11-15T01:39:43;123.47;;;5.93;;
4274;SDS011;2151;50.988;11.068;2022-11-15T01:42:12;123.47;;;5.57;;
4274;SDS011;2151;50.988;11.068;2022-11-15T01:47:09;122.97;;;5.93;;
4274;SDS011;2151;50.988;11.068;2022-11-15T01:49:37;122.97;;;5.57;;
4274;SDS011;2151;50.988;11.068;2022-11-15T01:52:05;122.63;;;5.47;;
4274;SDS011;2151;50.988;11.068;2022-11-15T01:54:33;123.03;;;5.90;;
4274;SDS011;2151;50.988;11.068;2022-11-15T01:57:01;124.07;;;6.03;;
4274;SDS011;2151;50.988;11.068;2022-11-15T01:59:29;123.80;;;6.40;;
4274;SDS011;2151;50.988;11.068;2022-11-15T02:01:56;123.37;;;5.77;;
4274;SDS011;2151;50.988;11.068;2022-11-15T02:04:24;123.50;;;5.50;;
4274;SDS011;2151;50.988;11.068;2022-11-15T02:06:51;122.97;;;5.80;;
4274;SDS011;2151;50.988;11.068;2022-11-15T02:09:18;123.63;;;5.90;;
4274;SDS011;2151;50.988;11.068;2022-11-15T02:11:45;123.50;;;5.63;;
4274;SDS011;2151;50.988;11.068;2022-11-15T02:14:12;123.30;;;5.97;;
4274;SDS011;2151;50.988;11.068;2022-11-15T02:27:02;123.77;;;5.77;;
4274;SDS011;2151;50.988;11.068;2022-11-15T02:32:27;123.23;;;5.53;;
4274;SDS011;2151;50.988;11.068;2022-11-15T02:35:08;126.67;;;6.87;;
4274;SDS011;2151;50.988;11.068;2022-11-15T02:43:18;123.27;;;5.57;;
4274;SDS011;2151;50.988;11.068;2022-11-15T02:48:41;123.63;;;5.40;;
4274;SDS011;2151;50.988;11.068;2022-11-15T02:51:09;123.37;;;5.80;;
4274;SDS011;2151;50.988;11.068;2022-11-15T02:53:35;123.77;;;5.57;;
4274;SDS011;2151;50.988;11.068;2022-11-15T02:56:02;123.77;;;5.83;;
4274;SDS011;2151;50.988;11.068;2022-11-15T03:11:21;123.67;;;5.87;;
4274;SDS011;2151;50.988;11.068;2022-11-15T03:13:53;122.97;;;5.60;;
4274;SDS011;2151;50.988;11.068;2022-11-15T03:16:34;123.77;;;5.70;;
4274;SDS011;2151;50.988;11.068;2022-11-15T03:19:04;123.60;;;5.47;;
4274;SDS011;2151;50.988;11.068;2022-11-15T03:21:32;125.50;;;6.10;;
4274;SDS011;2151;50.988;11.068;2022-11-15T03:24:01;123.50;;;5.17;;
4274;SDS011;2151;50.988;11.068;2022-11-15T03:26:29;123.37;;;5.77;;
4274;SDS011;2151;50.988;11.068;2022-11-15T03:28:57;123.47;;;5.63;;
4274;SDS011;2151;50.988;11.068;2022-11-15T03:31:26;123.77;;;5.90;;
4274;SDS011;2151;50.988;11.068;2022-11-15T03:34:20;124.67;;;5.73;;
4274;SDS011;2151;50.988;11.068;2022-11-15T03:36:47;124.03;;;5.53;;
4274;SDS011;2151;50.988;11.068;2022-11-15T03:39:16;124.27;;;5.57;;
4274;SDS011;2151;50.988;11.068;2022-11-15T03:44:42;124.27;;;5.83;;
4274;SDS011;2151;50.988;11.068;2022-11-15T03:49:45;124.90;;;5.67;;
4274;SDS011;2151;50.988;11.068;2022-11-15T03:52:12;124.87;;;6.07;;
4274;SDS011;2151;50.988;11.068;2022-11-15T03:54:53;124.47;;;5.90;;
4274;SDS011;2151;50.988;11.068;2022-11-15T03:57:20;126.27;;;6.27;;
4274;SDS011;2151;50.988;11.068;2022-11-15T03:59:46;124.70;;;6.00;;
4274;SDS011;2151;50.988;11.068;2022-11-15T04:02:13;125.07;;;5.83;;
4274;SDS011;2151;50.988;11.068;2022-11-15T04:04:39;125.53;;;6.40;;
4274;SDS011;2151;50.988;11.068;2022-11-15T04:07:06;125.07;;;5.87;;
4274;SDS011;2151;50.988;11.068;2022-11-15T04:09:32;124.00;;;6.17;;
4274;SDS011;2151;50.988;11.068;2022-11-15T04:11:59;126.30;;;6.37;;
4274;SDS011;2151;50.988;11.068;2022-11-15T04:14:25;126.30;;;6.60;;
4274;SDS011;2151;50.988;11.068;2022-11-15T04:16:51;124.70;;;6.07;;
4274;SDS011;2151;50.988;11.068;2022-11-15T04:19:18;123.80;;;5.63;;
4274;SDS011;2151;50.988;11.068;2022-11-15T04:22:03;125.20;;;5.87;;
4274;SDS011;2151;50.988;11.068;2022-11-15T04:24:48;125.47;;;6.67;;
4274;SDS011;2151;50.988;11.068;2022-11-15T04:27:14;125.27;;;5.83;;
4274;SDS011;2151;50.988;11.068;2022-11-15T04:29:40;125.57;;;6.20;;
4274;SDS011;2151;50.988;11.068;2022-11-15T04:32:07;125.40;;;5.77;;
4274;SDS011;2151;50.988;11.068;2022-11-15T04:34:33;125.37;;;5.97;;
4274;SDS011;2151;50.988;11.068;2022-11-15T04:37:00;124.67;;;5.53;;
4274;SDS011;2151;50.988;11.068;2022-11-15T04:39:39;123.63;;;5.77;;
4274;SDS011;2151;50.988;11.068;2022-11-15T04:42:06;124.40;;;5.90;;
4274;SDS011;2151;50.988;11.068;2022-11-15T04:44:32;124.77;;;5.87;;
4274;SDS011;2151;50.988;11.068;2022-11-15T04:46:59;123.90;;;5.80;;
4274;SDS011;2151;50.988;11.068;2022-11-15T04:49:25;123.97;;;5.90;;
4274;SDS011;2151;50.988;11.068;2022-11-15T04:51:52;124.23;;;5.90;;
4274;SDS011;2151;50.988;11.068;2022-11-15T04:54:18;124.40;;;6.17;;
4274;SDS011;2151;50.988;11.068;2022-11-15T04:56:45;124.47;;;6.30;;
4274;SDS011;2151;50.988;11.068;2022-11-15T04:59:11;124.27;;;5.67;;
4274;SDS011;2151;50.988;11.068;2022-11-15T05:01:37;123.80;;;6.10;;
4274;SDS011;2151;50.988;11.068;2022-11-15T05:04:10;124.37;;;6.20;;
4274;SDS011;2151;50.988;11.068;2022-11-15T05:06:49;124.77;;;5.60;;
4274;SDS011;2151;50.988;11.068;2022-11-15T05:09:16;124.77;;;5.57;;
4274;SDS011;2151;50.988;11.068;2022-11-15T05:11:43;124.97;;;5.67;;
4274;SDS011;2151;50.988;11.068;2022-11-15T05:14:09;125.07;;;5.80;;
4274;SDS011;2151;50.988;11.068;2022-11-15T05:16:36;125.07;;;5.67;;
4274;SDS011;2151;50.988;11.068;2022-11-15T05:19:03;124.60;;;5.80;;
4274;SDS011;2151;50.988;11.068;2022-11-15T05:21:30;124.87;;;5.73;;
4274;SDS011;2151;50.988;11.068;2022-11-15T05:23:56;124.47;;;5.53;;
4274;SDS011;2151;50.988;11.068;2022-11-15T05:26:23;125.07;;;5.60;;
4274;SDS011;2151;50.988;11.068;2022-11-15T05:28:56;126.17;;;6.40;;
4274;SDS011;2151;50.988;11.068;2022-11-15T05:31:22;125.40;;;5.93;;
4274;SDS011;2151;50.988;11.068;2022-11-15T05:33:49;125.33;;;6.03;;
4274;SDS011;2151;50.988;11.068;2022-11-15T05:38:56;126.47;;;6.33;;
4274;SDS011;2151;50.988;11.068;2022-11-15T05:41:26;125.97;;;6.23;;
4274;SDS011;2151;50.988;11.068;2022-11-15T05:43:55;125.60;;;5.97;;
4274;SDS011;2151;50.988;11.068;2022-11-15T05:46:22;126.37;;;6.23;;
4274;SDS011;2151;50.988;11.068;2022-11-15T05:48:49;126.27;;;6.13;;
4274;SDS011;2151;50.988;11.068;2022-11-15T05:51:16;126.17;;;6.30;;
4274;SDS011;2151;50.988;11.068;2022-11-15T05:53:43;126.47;;;6.07;;
4274;SDS011;2151;50.988;11.068;2022-11-15T05:56:09;125.27;;;5.57;;
4274;SDS011;2151;50.988;11.068;2022-11-15T05:58:36;125.97;;;6.00;;
4274;SDS011;2151;50.988;11.068;2022-11-15T06:01:03;126.27;;;5.87;;
4274;SDS011;2151;50.988;11.068;2022-11-15T06:03:30;125.77;;;6.00;;
4274;SDS011;2151;50.988;11.068;2022-11-15T06:05:57;135.23;;;7.30;;
4274;SDS011;2151;50.988;11.068;2022-11-15T06:08:23;124.50;;;6.10;;
4274;SDS011;2151;50.988;11.068;2022-11-15T06:10:50;126.87;;;6.60;;
4274;SDS011;2151;50.988;11.068;2022-11-15T06:13:16;124.57;;;6.07;;
4274;SDS011;2151;50.988;11.068;2022-11-15T06:15:43;125.90;;;6.10;;
4274;SDS011;2151;50.988;11.068;2022-11-15T06:18:09;125.67;;;6.10;;
4274;SDS011;2151;50.988;11.068;2022-11-15T06:20:36;125.10;;;6.20;;
4274;SDS011;2151;50.988;11.068;2022-11-15T06:23:03;126.27;;;5.67;;
4274;SDS011;2151;50.988;11.068;2022-11-15T06:25:30;126.37;;;6.10;;
4274;SDS011;2151;50.988;11.068;2022-11-15T06:27:57;124.90;;;6.10;;
4274;SDS011;2151;50.988;11.068;2022-11-15T06:30:24;125.20;;;6.27;;
4274;SDS011;2151;50.988;11.068;2022-11-15T06:32:51;126.23;;;6.37;;
4274;SDS011;2151;50.988;11.068;2022-11-15T06:35:18;126.20;;;5.97;;
4274;SDS011;2151;50.988;11.068;2022-11-15T06:37:44;126.17;;;5.83;;
4274;SDS011;2151;50.988;11.068;2022-11-15T06:40:10;125.60;;;6.00;;
4274;SDS011;2151;50.988;11.068;2022-11-15T06:42:37;125.23;;;6.00;;
4274;SDS011;2151;50.988;11.068;2022-11-15T06:45:03;124.47;;;5.70;;
4274;SDS011;2151;50.988;11.068;2022-11-15T06:47:30;129.77;;;6.80;;
4274;SDS011;2151;50.988;11.068;2022-11-15T06:49:56;125.00;;;5.87;;
4274;SDS011;2151;50.988;11.068;2022-11-15T06:52:23;125.87;;;5.77;;
4274;SDS011;2151;50.988;11.068;2022-11-15T06:54:49;125.17;;;5.97;;
4274;SDS011;2151;50.988;11.068;2022-11-15T06:57:15;124.70;;;5.60;;
4274;SDS011;2151;50.988;11.068;2022-11-15T06:59:42;125.77;;;6.07;;
4274;SDS011;2151;50.988;11.068;2022-11-15T07:02:12;125.57;;;5.57;;
4274;SDS011;2151;50.988;11.068;2022-11-15T07:04:39;130.30;;;6.70;;
4274;SDS011;2151;50.988;11.068;2022-11-15T07:07:06;124.57;;;5.57;;
4274;SDS011;2151;50.988;11.068;2022-11-15T07:09:32;124.07;;;5.73;;
4274;SDS011;2151;50.988;11.068;2022-11-15T07:11:59;126.77;;;6.40;;
4274;SDS011;2151;50.988;11.068;2022-11-15T07:14:32;124.27;;;5.40;;
4274;SDS011;2151;50.988;11.068;2022-11-15T07:16:59;125.27;;;5.57;;
4274;SDS011;2151;50.988;11.068;2022-11-15T07:19:25;123.90;;;5.83;;
4274;SDS011;2151;50.988;11.068;2022-11-15T07:21:51;125.20;;;5.60;;
4274;SDS011;2151;50.988;11.068;2022-11-15T07:24:18;124.67;;;5.63;;
4274;SDS011;2151;50.988;11.068;2022-11-15T07:26:44;125.07;;;5.70;;
4274;SDS011;2151;50.988;11.068;2022-11-15T07:29:10;125.67;;;5.73;;
4274;SDS011;2151;50.988;11.068;2022-11-15T07:31:36;123.00;;;5.40;;
4274;SDS011;2151;50.988;11.068;2022-11-15T07:34:04;124.50;;;5.63;;
4274;SDS011;2151;50.988;11.068;2022-11-15T07:36:30;124.50;;;5.63;;
4274;SDS011;2151;50.988;11.068;2022-11-15T07:38:57;125.27;;;5.57;;
4274;SDS011;2151;50.988;11.068;2022-11-15T07:41:23;125.47;;;5.83;;
4274;SDS011;2151;50.988;11.068;2022-11-15T07:43:53;124.50;;;5.73;;
4274;SDS011;2151;50.988;11.068;2022-11-15T07:46:19;124.37;;;5.93;;
4274;SDS011;2151;50.988;11.068;2022-11-15T07:48:45;124.77;;;5.67;;
4274;SDS011;2151;50.988;11.068;2022-11-15T07:51:12;125.10;;;5.90;;
4274;SDS011;2151;50.988;11.068;2022-11-15T07:53:40;124.67;;;5.93;;
4274;SDS011;2151;50.988;11.068;2022-11-15T07:56:07;124.47;;;5.77;;
4274;SDS011;2151;50.988;11.068;2022-11-15T07:58:33;123.90;;;5.87;;
4274;SDS011;2151;50.988;11.068;2022-11-15T08:01:03;125.10;;;6.20;;
4274;SDS011;2151;50.988;11.068;2022-11-15T08:03:30;124.07;;;6.00;;
4274;SDS011;2151;50.988;11.068;2022-11-15T08:05:57;124.07;;;5.63;;
4274;SDS011;2151;50.988;11.068;2022-11-15T08:08:23;123.43;;;5.67;;
4274;SDS011;2151;50.988;11.068;2022-11-15T08:10:50;124.20;;;5.53;;
4274;SDS011;2151;50.988;11.068;2022-11-15T08:13:16;123.70;;;5.60;;
4274;SDS011;2151;50.988;11.068;2022-11-15T08:15:43;123.13;;;5.53;;
4274;SDS011;2151;50.988;11.068;2022-11-15T08:18:11;123.80;;;6.40;;
4274;SDS011;2151;50.988;11.068;2022-11-15T08:20:38;123.07;;;5.60;;
4274;SDS011;2151;50.988;11.068;2022-11-15T08:23:04;123.27;;;6.03;;
4274;SDS011;2151;50.988;11.068;2022-11-15T08:25:31;123.70;;;5.70;;
4274;SDS011;2151;50.988;11.068;2022-11-15T08:28:02;123.90;;;5.87;;
4274;SDS011;2151;50.988;11.068;2022-11-15T08:30:28;123.00;;;6.07;;
4274;SDS011;2151;50.988;11.068;2022-11-15T08:32:56;122.77;;;5.47;;
4274;SDS011;2151;50.988;11.068;2022-11-15T08:35:23;123.40;;;5.77;;
4274;SDS011;2151;50.988;11.068;2022-11-15T08:37:54;123.73;;;6.00;;
4274;SDS011;2151;50.988;11.068;2022-11-15T08:40:21;122.57;;;6.00;;
4274;SDS011;2151;50.988;11.068;2022-11-15T08:42:49;122.67;;;5.60;;
4274;SDS011;2151;50.988;11.068;2022-11-15T08:45:15;122.27;;;6.10;;
4274;SDS011;2151;50.988;11.068;2022-11-15T08:47:41;125.20;;;6.30;;
4274;SDS011;2151;50.988;11.068;2022-11-15T08:50:08;121.97;;;5.57;;
4274;SDS011;2151;50.988;11.068;2022-11-15T08:52:35;121.97;;;5.87;;
4274;SDS011;2151;50.988;11.068;2022-11-15T08:55:01;121.57;;;5.70;;
4274;SDS011;2151;50.988;11.068;2022-11-15T08:57:28;121.50;;;5.60;;
4274;SDS011;2151;50.988;11.068;2022-11-15T08:59:55;122.20;;;5.77;;
4274;SDS011;2151;50.988;11.068;2022-11-15T09:02:21;121.90;;;5.53;;
4274;SDS011;2151;50.988;11.068;2022-11-15T09:04:48;120.50;;;5.27;;
4274;SDS011;2151;50.988;11.068;2022-11-15T09:07:14;120.70;;;5.47;;
4274;SDS011;2151;50.988;11.068;2022-11-15T09:09:41;120.20;;;5.30;;
4274;SDS011;2151;50.988;11.068;2022-11-15T09:12:08;120.03;;;5.50;;
4274;SDS011;2151;50.988;11.068;2022-11-15T09:14:34;121.30;;;5.53;;
4274;SDS011;2151;50.988;11.068;2022-11-15T09:17:00;120.47;;;5.57;;
4274;SDS011;2151;50.988;11.068;2022-11-15T09:19:27;120.60;;;5.50;;
4274;SDS011;2151;50.988;11.068;2022-11-15T09:21:53;120.37;;;5.63;;
4274;SDS011;2151;50.988;11.068;2022-11-15T09:24:20;119.07;;;5.53;;
4274;SDS011;2151;50.988;11.068;2022-11-15T09:26:49;120.27;;;5.40;;
4274;SDS011;2151;50.988;11.068;2022-11-15T09:29:15;119.90;;;5.23;;
4274;SDS011;2151;50.988;11.068;2022-11-15T09:31:41;120.00;;;5.30;;
4274;SDS011;2151;50.988;11.068;2022-11-15T09:34:09;119.70;;;5.80;;
4274;SDS011;2151;50.988;11.068;2022-11-15T09:36:37;120.87;;;5.53;;
4274;SDS011;2151;50.988;11.068;2022-11-15T09:39:03;119.70;;;5.57;;
4274;SDS011;2151;50.988;11.068;2022-11-15T09:47:03;120.90;;;5.70;;
4274;SDS011;2151;50.988;11.068;2022-11-15T09:49:34;121.10;;;5.80;;
4274;SDS011;2151;50.988;11.068;2022-11-15T09:52:01;120.50;;;5.60;;
4274;SDS011;2151;50.988;11.068;2022-11-15T09:54:35;121.07;;;5.57;;
4274;SDS011;2151;50.988;11.068;2022-11-15T09:59:48;118.67;;;5.83;;
4274;SDS011;2151;50.988;11.068;2022-11-15T10:04:42;120.87;;;5.57;;
4274;SDS011;2151;50.988;11.068;2022-11-15T10:07:16;119.93;;;5.83;;
4274;SDS011;2151;50.988;11.068;2022-11-15T10:09:52;120.70;;;5.73;;
4274;SDS011;2151;50.988;11.068;2022-11-15T10:12:19;120.47;;;5.37;;
4274;SDS011;2151;50.988;11.068;2022-11-15T10:14:45;120.37;;;5.57;;
4274;SDS011;2151;50.988;11.068;2022-11-15T10:19:49;119.77;;;5.53;;
4274;SDS011;2151;50.988;11.068;2022-11-15T10:24:45;119.80;;;5.40;;
4274;SDS011;2151;50.988;11.068;2022-11-15T10:27:13;120.67;;;5.63;;
4274;SDS011;2151;50.988;11.068;2022-11-15T10:29:49;119.17;;;5.50;;
4274;SDS011;2151;50.988;11.068;2022-11-15T10:32:17;119.67;;;5.63;;
4274;SDS011;2151;50.988;11.068;2022-11-15T10:34:44;119.67;;;5.67;;
4274;SDS011;2151;50.988;11.068;2022-11-15T10:37:11;117.77;;;5.47;;
4274;SDS011;2151;50.988;11.068;2022-11-15T10:39:37;119.67;;;5.57;;
4274;SDS011;2151;50.988;11.068;2022-11-15T10:44:43;119.80;;;5.97;;
4274;SDS011;2151;50.988;11.068;2022-11-15T10:47:21;119.93;;;6.13;;
4274;SDS011;2151;50.988;11.068;2022-11-15T10:50:02;118.77;;;6.07;;
4274;SDS011;2151;50.988;11.068;2022-11-15T10:52:29;118.97;;;6.40;;
4274;SDS011;2151;50.988;11.068;2022-11-15T10:54:58;119.50;;;6.20;;
4274;SDS011;2151;50.988;11.068;2022-11-15T10:57:28;120.67;;;7.10;;
4274;SDS011;2151;50.988;11.068;2022-11-15T11:07:57;123.57;;;13.00;;
4274;SDS011;2151;50.988;11.068;2022-11-15T11:10:24;124.03;;;13.77;;
4274;SDS011;2151;50.988;11.068;2022-11-15T11:13:27;124.30;;;14.50;;
4274;SDS011;2151;50.988;11.068;2022-11-15T11:18:42;125.60;;;16.53;;
4274;SDS011;2151;50.988;11.068;2022-11-15T11:21:10;127.03;;;20.60;;
4274;SDS011;2151;50.988;11.068;2022-11-15T11:28:59;125.70;;;17.07;;
4274;SDS011;2151;50.988;11.068;2022-11-15T11:31:35;126.47;;;16.37;;
4274;SDS011;2151;50.988;11.068;2022-11-15T11:34:19;126.60;;;15.77;;
4274;SDS011;2151;50.988;11.068;2022-11-15T11:37:03;126.20;;;15.73;;
4274;SDS011;2151;50.988;11.068;2022-11-15T11:47:09;129.87;;;16.20;;
4274;SDS011;2151;50.988;11.068;2022-11-15T11:49:42;130.97;;;16.00;;
4274;SDS011;2151;50.988;11.068;2022-11-15T11:57:11;129.27;;;13.07;;
4274;SDS011;2151;50.988;11.068;2022-11-15T11:59:45;129.30;;;12.30;;
4274;SDS011;2151;50.988;11.068;2022-11-15T12:02:37;129.07;;;12.00;;
4274;SDS011;2151;50.988;11.068;2022-11-15T12:05:03;129.00;;;11.63;;
4274;SDS011;2151;50.988;11.068;2022-11-15T12:07:32;128.47;;;10.97;;
4274;SDS011;2151;50.988;11.068;2022-11-15T12:10:01;128.17;;;9.97;;
4274;SDS011;2151;50.988;11.068;2022-11-15T12:12:38;126.90;;;8.83;;
4274;SDS011;2151;50.988;11.068;2022-11-15T12:17:36;126.67;;;8.50;;
4274;SDS011;2151;50.988;11.068;2022-11-15T12:20:14;126.13;;;8.00;;
4274;SDS011;2151;50.988;11.068;2022-11-15T12:22:48;125.67;;;7.83;;
4274;SDS011;2151;50.988;11.068;2022-11-15T12:28:34;124.77;;;7.27;;
4274;SDS011;2151;50.988;11.068;2022-11-15T12:33:56;124.80;;;7.60;;
4274;SDS011;2151;50.988;11.068;2022-11-15T12:36:30;125.10;;;7.47;;
4274;SDS011;2151;50.988;11.068;2022-11-15T12:39:00;125.20;;;7.77;;
4274;SDS011;2151;50.988;11.068;2022-11-15T12:41:27;128.67;;;8.87;;
4274;SDS011;2151;50.988;11.068;2022-11-15T12:43:54;126.30;;;8.63;;
4274;SDS011;2151;50.988;11.068;2022-11-15T12:46:58;125.17;;;8.83;;
4274;SDS011;2151;50.988;11.068;2022-11-15T13:02:26;127.20;;;9.93;;
4274;SDS011;2151;50.988;11.068;2022-11-15T13:04:55;127.80;;;10.20;;
4274;SDS011;2151;50.988;11.068;2022-11-15T13:10:51;127.77;;;10.40;;
4274;SDS011;2151;50.988;11.068;2022-11-15T13:12:57;127.43;;;10.50;;
4274;SDS011;2151;50.988;11.068;2022-11-15T13:15:45;128.70;;;11.67;;
4274;SDS011;2151;50.988;11.068;2022-11-15T13:18:26;127.67;;;10.87;;
4274;SDS011;2151;50.988;11.068;2022-11-15T13:20:53;128.33;;;11.53;;
4274;SDS011;2151;50.988;11.068;2022-11-15T13:23:27;128.40;;;11.50;;
4274;SDS011;2151;50.988;11.068;2022-11-15T13:26:06;128.27;;;11.13;;
4274;SDS011;2151;50.988;11.068;2022-11-15T13:33:45;129.30;;;11.60;;
4274;SDS011;2151;50.988;11.068;2022-11-15T13:36:13;128.87;;;11.87;;
4274;SDS011;2151;50.988;11.068;2022-11-15T13:38:41;128.80;;;11.93;;
4274;SDS011;2151;50.988;11.068;2022-11-15T13:41:27;128.67;;;12.23;;
4274;SDS011;2151;50.988;11.068;2022-11-15T13:43:54;128.67;;;12.30;;
4274;SDS011;2151;50.988;11.068;2022-11-15T13:46:25;128.77;;;12.90;;
4274;SDS011;2151;50.988;11.068;2022-11-15T13:48:53;129.00;;;13.20;;
4274;SDS011;2151;50.988;11.068;2022-11-15T13:53:55;128.77;;;14.03;;
4274;SDS011;2151;50.988;11.068;2022-11-15T13:56:22;128.83;;;14.97;;
4274;SDS011;2151;50.988;11.068;2022-11-15T13:58:49;129.10;;;15.13;;
4274;SDS011;2151;50.988;11.068;2022-11-15T14:01:16;129.17;;;15.10;;
4274;SDS011;2151;50.988;11.068;2022-11-15T14:03:53;129.70;;;16.07;;
4274;SDS011;2151;50.988;11.068;2022-11-15T14:06:21;129.30;;;15.83;;
4274;SDS011;2151;50.988;11.068;2022-11-15T14:09:03;128.57;;;15.40;;
4274;SDS011;2151;50.988;11.068;2022-11-15T14:11:30;129.20;;;16.30;;
4274;SDS011;2151;50.988;11.068;2022-11-15T14:14:02;129.20;;;16.67;;
4274;SDS011;2151;50.988;11.068;2022-11-15T14:16:34;129.80;;;17.07;;
4274;SDS011;2151;50.988;11.068;2022-11-15T14:19:02;129.47;;;16.27;;
4274;SDS011;2151;50.988;11.068;2022-11-15T14:21:30;129.67;;;16.60;;
4274;SDS011;2151;50.988;11.068;2022-11-15T14:26:42;129.30;;;16.43;;
4274;SDS011;2151;50.988;11.068;2022-11-15T14:29:27;130.67;;;18.03;;
4274;SDS011;2151;50.988;11.068;2022-11-15T14:32:05;129.37;;;17.07;;
4274;SDS011;2151;50.988;11.068;2022-11-15T14:34:32;128.60;;;16.77;;
4274;SDS011;2151;50.988;11.068;2022-11-15T14:36:58;129.53;;;18.17;;
4274;SDS011;2151;50.988;11.068;2022-11-15T14:39:25;129.47;;;18.90;;
4274;SDS011;2151;50.988;11.068;2022-11-15T14:41:51;129.37;;;19.10;;
4274;SDS011;2151;50.988;11.068;2022-11-15T14:44:18;128.67;;;18.33;;
4274;SDS011;2151;50.988;11.068;2022-11-15T14:46:46;128.17;;;18.90;;
4274;SDS011;2151;50.988;11.068;2022-11-15T14:49:14;127.47;;;17.77;;
4274;SDS011;2151;50.988;11.068;2022-11-15T14:51:41;127.90;;;18.10;;
4274;SDS011;2151;50.988;11.068;2022-11-15T14:54:10;126.97;;;18.33;;
4274;SDS011;2151;50.988;11.068;2022-11-15T14:56:37;126.03;;;17.23;;
4274;SDS011;2151;50.988;11.068;2022-11-15T14:59:03;125.17;;;16.20;;
4274;SDS011;2151;50.988;11.068;2022-11-15T15:01:30;125.33;;;15.00;;
4274;SDS011;2151;50.988;11.068;2022-11-15T15:03:57;123.40;;;12.13;;
4274;SDS011;2151;50.988;11.068;2022-11-15T15:06:25;123.30;;;11.63;;
4274;SDS011;2151;50.988;11.068;2022-11-15T15:08:53;122.40;;;9.63;;
4274;SDS011;2151;50.988;11.068;2022-11-15T15:11:23;121.67;;;9.00;;
4274;SDS011;2151;50.988;11.068;2022-11-15T15:13:50;121.77;;;8.47;;
4274;SDS011;2151;50.988;11.068;2022-11-15T15:16:17;120.97;;;8.00;;
4274;SDS011;2151;50.988;11.068;2022-11-15T15:18:43;120.37;;;7.83;;
4274;SDS011;2151;50.988;11.068;2022-11-15T15:21:17;120.43;;;7.30;;
4274;SDS011;2151;50.988;11.068;2022-11-15T15:23:44;121.10;;;7.20;;
4274;SDS011;2151;50.988;11.068;2022-11-15T15:26:11;120.03;;;6.23;;
4274;SDS011;2151;50.988;11.068;2022-11-15T15:28:37;119.80;;;6.43;;
4274;SDS011;2151;50.988;11.068;2022-11-15T15:31:06;119.47;;;6.13;;
4274;SDS011;2151;50.988;11.068;2022-11-15T15:33:33;119.73;;;6.13;;
4274;SDS011;2151;50.988;11.068;2022-11-15T15:35:59;118.97;;;6.57;;
4274;SDS011;2151;50.988;11.068;2022-11-15T15:38:25;119.27;;;6.20;;
4274;SDS011;2151;50.988;11.068;2022-11-15T15:40:52;119.57;;;5.83;;
4274;SDS011;2151;50.988;11.068;2022-11-15T15:43:18;119.00;;;6.00;;
4274;SDS011;2151;50.988;11.068;2022-11-15T15:45:45;119.90;;;5.87;;
4274;SDS011;2151;50.988;11.068;2022-11-15T15:48:15;119.87;;;5.77;;
4274;SDS011;2151;50.988;11.068;2022-11-15T15:50:42;119.77;;;5.83;;
4274;SDS011;2151;50.988;11.068;2022-11-15T15:53:09;119.47;;;5.63;;
4274;SDS011;2151;50.988;11.068;2022-11-15T15:55:36;118.97;;;5.60;;
4274;SDS011;2151;50.988;11.068;2022-11-15T15:58:03;119.80;;;5.63;;
4274;SDS011;2151;50.988;11.068;2022-11-15T16:00:30;119.30;;;5.27;;
4274;SDS011;2151;50.988;11.068;2022-11-15T16:02:59;119.97;;;5.93;;
4274;SDS011;2151;50.988;11.068;2022-11-15T16:05:25;119.17;;;6.00;;
4274;SDS011;2151;50.988;11.068;2022-11-15T16:07:51;118.50;;;5.43;;
4274;SDS011;2151;50.988;11.068;2022-11-15T16:10:22;120.67;;;6.10;;
4274;SDS011;2151;50.988;11.068;2022-11-15T16:12:51;119.33;;;5.53;;
4274;SDS011;2151;50.988;11.068;2022-11-15T16:15:18;120.23;;;5.80;;
4274;SDS011;2151;50.988;11.068;2022-11-15T16:17:57;119.97;;;6.07;;
4274;SDS011;2151;50.988;11.068;2022-11-15T16:22:57;119.37;;;5.80;;
4274;SDS011;2151;50.988;11.068;2022-11-15T16:25:23;119.87;;;5.47;;
4274;SDS011;2151;50.988;11.068;2022-11-15T16:27:50;119.90;;;5.90;;
4274;SDS011;2151;50.988;11.068;2022-11-15T16:30:18;120.10;;;5.63;;
4274;SDS011;2151;50.988;11.068;2022-11-15T16:32:44;120.00;;;5.53;;
4274;SDS011;2151;50.988;11.068;2022-11-15T16:35:11;120.27;;;5.93;;
4274;SDS011;2151;50.988;11.068;2022-11-15T16:37:41;120.20;;;5.73;;
4274;SDS011;2151;50.988;11.068;2022-11-15T16:40:16;119.97;;;5.63;;
4274;SDS011;2151;50.988;11.068;2022-11-15T16:42:43;119.43;;;5.60;;
4274;SDS011;2151;50.988;11.068;2022-11-15T16:45:12;119.43;;;5.63;;
4274;SDS011;2151;50.988;11.068;2022-11-15T16:47:40;120.40;;;5.53;;
4274;SDS011;2151;50.988;11.068;2022-11-15T16:50:21;119.77;;;6.07;;
4274;SDS011;2151;50.988;11.068;2022-11-15T16:52:53;134.37;;;6.07;;